Time;durP1;ratioP1;P1;durP2;ratioP2;P2;SDS_P1;SDS_P2;PMS_P1;PMS_P2;Temp;Humidity;BMP_temperature;BMP_pressure;BME280_temperature;BME280_humidity;BME280_pressure;Samples;Min_cycle;Max_cycle;Signal;HPM_P1;HPM_P2
2022/12/31 00:00:57;;;;;;;;;;;11.70;99.90;;;;;;4988109;28;19925;-84
2022/12/31 00:03:23;;;;;;;;;;;11.60;99.90;;;;;;5003842;28;20324;-83
2022/12/31 00:05:48;;;;;;;;;;;11.60;99.90;;;;;;5003372;28;20297;-83
2022/12/31 00:08:14;;;;;;;;;;;11.60;99.90;;;;;;4989446;28;19996;-84
2022/12/31 00:10:42;;;;;;;;;;;11.60;99.90;;;;;;4990384;28;20358;-84
2022/12/31 00:13:09;;;;;;;;;;;11.60;99.90;;;;;;5008604;28;20288;-83
2022/12/31 00:15:34;;;;;;;;;;;11.60;99.90;;;;;;5006870;28;19921;-84
2022/12/31 00:18:00;;;;;;;;;;;11.60;99.90;;;;;;5013001;28;19924;-84
2022/12/31 00:20:26;;;;;;;;;;;11.60;99.90;;;;;;5008571;28;19921;-83
2022/12/31 00:22:51;;;;;;;;;;;11.60;99.90;;;;;;5010393;28;19924;-85
2022/12/31 00:25:17;;;;;;;;;;;11.60;99.90;;;;;;5001839;28;19928;-84
2022/12/31 00:27:43;;;;;;;;;;;11.60;99.90;;;;;;4994546;28;19939;-85
2022/12/31 00:30:09;;;;;;;;;;;11.60;99.90;;;;;;5023295;28;19967;-84
2022/12/31 00:32:34;;;;;;;;;;;11.60;99.90;;;;;;4990262;28;19928;-84
2022/12/31 00:35:00;;;;;;;;;;;11.60;99.90;;;;;;4987999;28;19944;-84
2022/12/31 00:37:25;;;;;;;;;;;11.50;99.90;;;;;;4985465;28;20021;-84
2022/12/31 00:39:51;;;;;;;;;;;11.60;99.90;;;;;;5004550;28;19999;-84
2022/12/31 00:42:17;;;;;;;;;;;11.50;99.90;;;;;;4984846;28;19922;-85
2022/12/31 00:44:43;;;;;;;;;;;11.50;99.90;;;;;;5020353;28;20263;-84
2022/12/31 00:47:08;;;;;;;;;;;11.60;99.90;;;;;;5028854;28;19963;-84
2022/12/31 00:49:34;;;;;;;;;;;11.60;99.90;;;;;;4987647;28;19917;-84
2022/12/31 00:51:59;;;;;;;;;;;11.60;99.90;;;;;;5011071;28;19917;-84
2022/12/31 00:54:25;;;;;;;;;;;11.50;99.90;;;;;;5004318;28;19921;-84
2022/12/31 00:56:51;;;;;;;;;;;11.50;99.90;;;;;;4993965;28;19952;-85
2022/12/31 00:59:16;;;;;;;;;;;11.50;99.90;;;;;;5003464;28;19967;-84
2022/12/31 01:01:42;;;;;;;;;;;11.60;99.90;;;;;;4989977;28;19917;-84
2022/12/31 01:04:11;;;;;;;;;;;11.60;99.90;;;;;;5003789;28;19992;-84
2022/12/31 01:06:37;;;;;;;;;;;11.60;99.90;;;;;;4998461;28;19917;-85
2022/12/31 01:09:03;;;;;;;;;;;11.50;99.90;;;;;;5019921;28;19939;-85
2022/12/31 01:11:28;;;;;;;;;;;11.50;99.90;;;;;;5007077;28;20273;-84
2022/12/31 01:13:59;;;;;;;;;;;11.50;99.90;;;;;;5006716;28;19921;-85
2022/12/31 01:16:26;;;;;;;;;;;11.50;99.90;;;;;;5003342;28;20338;-84
2022/12/31 01:18:51;;;;;;;;;;;11.40;99.90;;;;;;5003545;28;19926;-84
2022/12/31 01:21:18;;;;;;;;;;;11.50;99.90;;;;;;4989463;28;19925;-84
2022/12/31 01:23:43;;;;;;;;;;;11.40;99.90;;;;;;5019737;28;19918;-84
2022/12/31 01:26:11;;;;;;;;;;;11.40;99.90;;;;;;5008548;28;20293;-84
2022/12/31 01:28:37;;;;;;;;;;;11.40;99.90;;;;;;5001531;28;20020;-84
2022/12/31 01:31:06;;;;;;;;;;;11.40;99.90;;;;;;4987656;28;19955;-84
2022/12/31 01:33:33;;;;;;;;;;;11.50;99.90;;;;;;5009984;28;19917;-85
2022/12/31 01:36:06;;;;;;;;;;;11.50;99.90;;;;;;5034112;28;19924;-84
2022/12/31 01:38:32;;;;;;;;;;;11.50;99.90;;;;;;5032927;28;19917;-84
2022/12/31 01:40:58;;;;;;;;;;;11.40;99.90;;;;;;4992531;28;19921;-84
2022/12/31 01:43:23;;;;;;;;;;;11.40;99.90;;;;;;5022665;28;19917;-85
2022/12/31 01:45:50;;;;;;;;;;;11.50;99.90;;;;;;5008691;28;19917;-84
2022/12/31 01:48:19;;;;;;;;;;;11.50;99.90;;;;;;5008780;28;19928;-85
2022/12/31 01:50:45;;;;;;;;;;;11.50;99.90;;;;;;5013332;28;19917;-84
2022/12/31 01:53:11;;;;;;;;;;;11.50;99.90;;;;;;5016986;28;19917;-85
2022/12/31 01:55:40;;;;;;;;;;;11.40;99.90;;;;;;5004034;28;19921;-84
2022/12/31 01:58:14;;;;;;;;;;;11.40;99.90;;;;;;5021019;28;19924;-85
2022/12/31 02:00:40;;;;;;;;;;;11.40;99.90;;;;;;4998648;28;19972;-86
2022/12/31 02:03:07;;;;;;;;;;;11.40;99.90;;;;;;4998837;28;20004;-84
2022/12/31 02:05:50;;;;;;;;;;;11.40;99.90;;;;;;5006213;28;19917;-84
2022/12/31 02:08:16;;;;;;;;;;;11.50;99.90;;;;;;5029532;28;20273;-85
2022/12/31 02:10:42;;;;;;;;;;;11.60;99.90;;;;;;5000473;28;19917;-84
2022/12/31 02:13:07;;;;;;;;;;;11.60;99.90;;;;;;4990895;28;19921;-84
2022/12/31 02:15:33;;;;;;;;;;;11.60;99.90;;;;;;5002540;28;19984;-84
2022/12/31 02:17:58;;;;;;;;;;;11.60;99.90;;;;;;5021991;28;20055;-85
2022/12/31 02:20:36;;;;;;;;;;;11.60;99.90;;;;;;5005500;28;19929;-85
2022/12/31 02:23:28;;;;;;;;;;;11.60;99.90;;;;;;5008694;28;20365;-85
2022/12/31 02:26:09;;;;;;;;;;;11.60;99.90;;;;;;4977858;28;19921;-85
2022/12/31 02:28:35;;;;;;;;;;;11.60;99.90;;;;;;5002230;28;19917;-85
2022/12/31 02:31:06;;;;;;;;;;;11.60;99.90;;;;;;5008341;28;19925;-85
2022/12/31 02:33:36;;;;;;;;;;;11.60;99.90;;;;;;5003304;28;19917;-85
2022/12/31 02:36:03;;;;;;;;;;;11.60;99.90;;;;;;5008452;28;20370;-85
2022/12/31 02:38:34;;;;;;;;;;;11.60;99.90;;;;;;5003278;28;19917;-85
2022/12/31 02:41:00;;;;;;;;;;;11.60;99.90;;;;;;5021990;28;19917;-85
2022/12/31 02:43:25;;;;;;;;;;;11.60;99.90;;;;;;4990813;28;20008;-84
2022/12/31 02:46:00;;;;;;;;;;;11.60;99.90;;;;;;5002555;28;19917;-84
2022/12/31 02:48:46;;;;;;;;;;;11.60;99.90;;;;;;5006233;28;19920;-85
2022/12/31 02:51:18;;;;;;;;;;;11.60;99.90;;;;;;5000087;28;19971;-84
2022/12/31 02:53:50;;;;;;;;;;;11.70;99.90;;;;;;5006350;28;20016;-84
2022/12/31 02:56:21;;;;;;;;;;;11.60;99.90;;;;;;4999423;28;19921;-84
2022/12/31 03:04:34;;;;;;;;;;;11.50;99.90;;;;;;5019564;28;19940;-84
2022/12/31 03:07:11;;;;;;;;;;;11.50;99.90;;;;;;4999810;28;19996;-85
2022/12/31 03:09:37;;;;;;;;;;;11.50;99.90;;;;;;5028760;28;19917;-84
2022/12/31 03:14:48;;;;;;;;;;;11.40;99.90;;;;;;5019071;28;19965;-84
2022/12/31 03:17:14;;;;;;;;;;;11.40;99.90;;;;;;5005756;28;19924;-85
2022/12/31 03:22:26;;;;;;;;;;;11.30;99.90;;;;;;5007993;28;19970;-85
2022/12/31 03:27:44;;;;;;;;;;;11.30;99.90;;;;;;5023057;28;19931;-84
2022/12/31 03:30:11;;;;;;;;;;;11.40;99.90;;;;;;5008227;28;20258;-85
2022/12/31 03:32:36;;;;;;;;;;;11.40;99.90;;;;;;5004784;28;20388;-85
2022/12/31 03:35:02;;;;;;;;;;;11.30;99.90;;;;;;4992047;28;19976;-85
2022/12/31 03:37:28;;;;;;;;;;;11.30;99.90;;;;;;4986566;28;19997;-85
2022/12/31 03:39:53;;;;;;;;;;;11.30;99.90;;;;;;4997605;28;19918;-84
2022/12/31 03:42:19;;;;;;;;;;;11.30;99.90;;;;;;4989437;28;19917;-84
2022/12/31 03:44:44;;;;;;;;;;;11.30;99.90;;;;;;5004371;28;19917;-85
2022/12/31 03:47:10;;;;;;;;;;;11.20;99.90;;;;;;4996150;28;19917;-85
2022/12/31 03:49:35;;;;;;;;;;;11.20;99.90;;;;;;5013097;28;19917;-85
2022/12/31 03:52:02;;;;;;;;;;;11.10;99.90;;;;;;5002836;28;20336;-85
2022/12/31 03:54:28;;;;;;;;;;;11.00;99.90;;;;;;4993310;28;19925;-85
2022/12/31 03:56:53;;;;;;;;;;;11.00;99.90;;;;;;4989242;28;19924;-84
2022/12/31 03:59:19;;;;;;;;;;;11.00;99.90;;;;;;4993268;28;19924;-85
2022/12/31 04:01:44;;;;;;;;;;;11.00;99.90;;;;;;5009482;28;19928;-84
2022/12/31 04:04:10;;;;;;;;;;;11.00;99.90;;;;;;5000743;28;19918;-85
2022/12/31 04:06:35;;;;;;;;;;;11.00;99.90;;;;;;5009067;28;19979;-84
2022/12/31 04:09:01;;;;;;;;;;;11.00;99.90;;;;;;5000524;28;19925;-85
2022/12/31 04:11:27;;;;;;;;;;;11.00;99.90;;;;;;4984583;28;20153;-84
2022/12/31 04:13:52;;;;;;;;;;;11.00;99.90;;;;;;4992125;28;19929;-85
2022/12/31 04:16:18;;;;;;;;;;;11.10;99.90;;;;;;4994491;28;19971;-84
2022/12/31 04:18:43;;;;;;;;;;;11.10;99.90;;;;;;5025800;28;19949;-84
2022/12/31 04:21:09;;;;;;;;;;;11.10;99.90;;;;;;4995140;28;19927;-85
2022/12/31 04:23:34;;;;;;;;;;;11.10;99.90;;;;;;5012845;28;19917;-85
2022/12/31 04:26:00;;;;;;;;;;;11.20;99.90;;;;;;4988285;28;19921;-85
2022/12/31 04:28:26;;;;;;;;;;;11.20;99.90;;;;;;5001090;28;19927;-85
2022/12/31 04:30:51;;;;;;;;;;;11.20;99.90;;;;;;4986332;28;19917;-85
2022/12/31 04:33:17;;;;;;;;;;;11.10;99.90;;;;;;5030856;28;19928;-85
2022/12/31 04:35:43;;;;;;;;;;;11.10;99.90;;;;;;5001934;28;20284;-84
2022/12/31 04:38:08;;;;;;;;;;;11.10;99.90;;;;;;5003984;28;19918;-85
2022/12/31 04:40:34;;;;;;;;;;;11.20;99.90;;;;;;5020754;28;20007;-84
2022/12/31 04:43:00;;;;;;;;;;;11.20;99.90;;;;;;4994064;28;20527;-84
2022/12/31 04:45:25;;;;;;;;;;;11.20;99.90;;;;;;4988877;28;20421;-84
2022/12/31 04:47:51;;;;;;;;;;;11.10;99.90;;;;;;5009232;28;19971;-84
2022/12/31 04:50:16;;;;;;;;;;;11.10;99.90;;;;;;5019587;28;19917;-84
2022/12/31 04:52:42;;;;;;;;;;;11.10;99.90;;;;;;4993668;28;19967;-84
2022/12/31 04:55:07;;;;;;;;;;;11.00;99.90;;;;;;4984922;28;19932;-84
2022/12/31 04:57:33;;;;;;;;;;;11.00;99.90;;;;;;5007638;28;19970;-84
2022/12/31 04:59:58;;;;;;;;;;;11.00;99.90;;;;;;4996766;28;20365;-85
2022/12/31 05:02:24;;;;;;;;;;;11.00;99.90;;;;;;5001371;28;19917;-84
2022/12/31 05:04:50;;;;;;;;;;;11.00;99.90;;;;;;4986746;28;19917;-85
2022/12/31 05:07:15;;;;;;;;;;;10.90;99.90;;;;;;4982481;28;20328;-85
2022/12/31 05:09:41;;;;;;;;;;;11.00;99.90;;;;;;4987217;28;19917;-84
2022/12/31 05:12:06;;;;;;;;;;;11.00;99.90;;;;;;4995425;28;19920;-84
2022/12/31 05:14:32;;;;;;;;;;;11.00;99.90;;;;;;5000159;28;20012;-84
2022/12/31 05:16:58;;;;;;;;;;;11.00;99.90;;;;;;5006844;28;19928;-84
2022/12/31 05:19:23;;;;;;;;;;;11.00;99.90;;;;;;5005985;28;20308;-85
2022/12/31 05:22:27;;;;;;;;;;;11.00;99.90;;;;;;4990451;28;19925;-85
2022/12/31 05:24:35;;;;;;;;;;;10.90;99.90;;;;;;5012024;28;19924;-85
2022/12/31 05:27:00;;;;;;;;;;;10.90;99.90;;;;;;5024649;28;19924;-84
2022/12/31 05:29:26;;;;;;;;;;;10.80;99.90;;;;;;5027019;28;19917;-84
2022/12/31 05:31:51;;;;;;;;;;;10.80;99.90;;;;;;5021740;28;19923;-85
2022/12/31 05:34:17;;;;;;;;;;;10.80;99.90;;;;;;5005952;28;19933;-84
2022/12/31 05:36:43;;;;;;;;;;;10.80;99.90;;;;;;5008302;28;19918;-82
2022/12/31 05:39:08;;;;;;;;;;;10.80;99.90;;;;;;4998836;28;20006;-84
2022/12/31 05:41:34;;;;;;;;;;;10.80;99.90;;;;;;4990497;28;19924;-84
2022/12/31 05:43:59;;;;;;;;;;;10.80;99.90;;;;;;4997754;28;19916;-84
2022/12/31 05:46:25;;;;;;;;;;;10.80;99.90;;;;;;4986294;28;20014;-84
2022/12/31 05:48:50;;;;;;;;;;;10.90;99.90;;;;;;5001917;28;19917;-84
2022/12/31 05:51:16;;;;;;;;;;;10.90;99.90;;;;;;4992391;28;19921;-84
2022/12/31 05:53:41;;;;;;;;;;;10.90;99.90;;;;;;5001760;28;19917;-85
2022/12/31 05:56:07;;;;;;;;;;;11.00;99.90;;;;;;4988603;28;20393;-86
2022/12/31 05:58:33;;;;;;;;;;;10.90;99.90;;;;;;4997591;28;19996;-84
2022/12/31 06:00:58;;;;;;;;;;;10.90;99.90;;;;;;4990738;28;20000;-85
2022/12/31 06:03:24;;;;;;;;;;;10.90;99.90;;;;;;5003056;28;19917;-85
2022/12/31 06:05:49;;;;;;;;;;;11.00;99.90;;;;;;4989482;28;19917;-83
2022/12/31 06:08:15;;;;;;;;;;;10.90;99.90;;;;;;5006959;28;19917;-84
2022/12/31 06:10:41;;;;;;;;;;;10.90;99.90;;;;;;4996359;28;20047;-84
2022/12/31 06:13:07;;;;;;;;;;;10.80;99.90;;;;;;5006484;28;19921;-84
2022/12/31 06:15:35;;;;;;;;;;;10.80;99.90;;;;;;5001774;28;20071;-85
2022/12/31 06:18:00;;;;;;;;;;;10.80;99.90;;;;;;5007270;28;19925;-84
2022/12/31 06:20:26;;;;;;;;;;;10.80;99.90;;;;;;4982930;28;19928;-84
2022/12/31 06:22:52;;;;;;;;;;;10.70;99.90;;;;;;4988295;28;20031;-84
2022/12/31 06:25:17;;;;;;;;;;;10.60;99.90;;;;;;5007003;28;19921;-84
2022/12/31 06:27:43;;;;;;;;;;;10.60;99.90;;;;;;5020787;28;20338;-84
2022/12/31 06:30:09;;;;;;;;;;;10.50;99.90;;;;;;5004415;28;19923;-83
2022/12/31 06:32:35;;;;;;;;;;;10.50;99.90;;;;;;4993068;28;19923;-83
2022/12/31 06:35:00;;;;;;;;;;;10.40;99.90;;;;;;5006382;28;19921;-83
2022/12/31 06:37:26;;;;;;;;;;;10.40;99.90;;;;;;5022299;28;19917;-83
2022/12/31 06:39:51;;;;;;;;;;;10.30;99.90;;;;;;4989023;28;19917;-83
2022/12/31 06:42:17;;;;;;;;;;;10.30;99.90;;;;;;4999603;28;19928;-82
2022/12/31 06:44:42;;;;;;;;;;;10.10;99.90;;;;;;4991487;28;19956;-83
2022/12/31 06:47:08;;;;;;;;;;;10.30;99.90;;;;;;5011921;28;19917;-83
2022/12/31 06:49:34;;;;;;;;;;;10.20;99.90;;;;;;4990169;28;19917;-84
2022/12/31 06:51:59;;;;;;;;;;;10.20;99.90;;;;;;4991175;28;20082;-84
2022/12/31 06:54:25;;;;;;;;;;;10.20;99.90;;;;;;5007379;28;19928;-84
2022/12/31 06:56:50;;;;;;;;;;;10.20;99.90;;;;;;4993522;28;19998;-84
2022/12/31 06:59:24;;;;;;;;;;;10.20;99.90;;;;;;5018162;28;20288;-84
2022/12/31 07:01:50;;;;;;;;;;;10.30;99.90;;;;;;5005775;28;19917;-84
2022/12/31 07:04:39;;;;;;;;;;;10.40;99.90;;;;;;5003193;28;20629;-84
2022/12/31 07:07:05;;;;;;;;;;;10.50;99.90;;;;;;5024429;28;19917;-84
2022/12/31 07:09:54;;;;;;;;;;;10.50;99.90;;;;;;5001130;28;20392;-84
2022/12/31 07:12:32;;;;;;;;;;;10.50;99.90;;;;;;5008486;28;19917;-84
2022/12/31 07:15:06;;;;;;;;;;;10.50;99.90;;;;;;5008225;28;19932;-84
2022/12/31 07:17:51;;;;;;;;;;;10.50;99.90;;;;;;5006666;28;20047;-85
2022/12/31 07:20:17;;;;;;;;;;;10.60;99.90;;;;;;5012010;28;19917;-85
2022/12/31 07:22:44;;;;;;;;;;;10.60;99.90;;;;;;4991026;28;20289;-84
2022/12/31 07:25:13;;;;;;;;;;;10.70;99.90;;;;;;5010117;28;19917;-84
2022/12/31 07:27:54;;;;;;;;;;;10.60;99.90;;;;;;5020209;28;19917;-84
2022/12/31 07:30:21;;;;;;;;;;;10.50;99.90;;;;;;5003700;28;19925;-85
2022/12/31 07:32:59;;;;;;;;;;;10.50;99.90;;;;;;5002986;28;20468;-84
2022/12/31 07:35:24;;;;;;;;;;;10.50;99.90;;;;;;5019411;28;21444;-84
2022/12/31 07:37:59;;;;;;;;;;;10.50;99.90;;;;;;5009420;28;19993;-84
2022/12/31 07:40:47;;;;;;;;;;;10.50;99.90;;;;;;5004977;28;19917;-84
2022/12/31 07:43:31;;;;;;;;;;;10.50;99.90;;;;;;5010408;28;19925;-84
2022/12/31 07:46:15;;;;;;;;;;;10.50;99.90;;;;;;5012753;28;19967;-84
2022/12/31 07:48:41;;;;;;;;;;;10.60;99.90;;;;;;5007676;28;19917;-84
2022/12/31 07:51:10;;;;;;;;;;;10.50;99.90;;;;;;5012416;28;19927;-84
2022/12/31 07:53:36;;;;;;;;;;;10.50;99.90;;;;;;5026109;28;19956;-85
2022/12/31 07:56:03;;;;;;;;;;;10.50;99.90;;;;;;5024224;28;19968;-84
2022/12/31 07:58:37;;;;;;;;;;;10.50;99.90;;;;;;5023546;28;19917;-84
2022/12/31 08:01:04;;;;;;;;;;;10.50;99.90;;;;;;5022566;28;20284;-85
2022/12/31 08:03:41;;;;;;;;;;;10.50;99.90;;;;;;5008455;28;20012;-86
2022/12/31 08:06:07;;;;;;;;;;;10.40;99.90;;;;;;5007150;28;20425;-84
2022/12/31 08:08:37;;;;;;;;;;;10.50;99.90;;;;;;5022155;28;19917;-84
2022/12/31 08:11:21;;;;;;;;;;;10.50;99.90;;;;;;5007333;28;20351;-85
2022/12/31 08:13:47;;;;;;;;;;;10.50;99.90;;;;;;5021800;28;19917;-85
2022/12/31 08:16:13;;;;;;;;;;;10.40;99.90;;;;;;5003458;28;20012;-85
2022/12/31 08:18:39;;;;;;;;;;;10.40;99.90;;;;;;4998156;28;19956;-85
2022/12/31 08:21:18;;;;;;;;;;;10.40;99.90;;;;;;5003345;28;19921;-85
2022/12/31 08:23:47;;;;;;;;;;;10.40;99.90;;;;;;5022678;28;20035;-85
2022/12/31 08:26:29;;;;;;;;;;;10.40;99.90;;;;;;5013137;28;19940;-84
2022/12/31 08:29:07;;;;;;;;;;;10.40;99.90;;;;;;5006223;28;19967;-85
2022/12/31 08:31:38;;;;;;;;;;;10.40;99.90;;;;;;5009182;28;19959;-87
2022/12/31 08:34:16;;;;;;;;;;;10.50;99.90;;;;;;5027161;28;19932;-87
2022/12/31 08:36:54;;;;;;;;;;;9.20;99.90;;;;;;5001695;28;19964;-87
2022/12/31 08:39:34;;;;;;;;;;;10.50;99.90;;;;;;5008869;28;19917;-84
2022/12/31 08:42:02;;;;;;;;;;;10.60;99.90;;;;;;5009358;28;19918;-87
2022/12/31 08:44:31;;;;;;;;;;;10.70;99.90;;;;;;5003434;28;19921;-85
2022/12/31 08:47:06;;;;;;;;;;;10.80;99.90;;;;;;5008318;28;19928;-86
2022/12/31 08:49:32;;;;;;;;;;;10.90;99.90;;;;;;5013251;28;19959;-85
2022/12/31 08:51:59;;;;;;;;;;;10.90;99.90;;;;;;5001687;28;20043;-85
2022/12/31 08:54:24;;;;;;;;;;;10.90;99.90;;;;;;5007379;28;19921;-86
2022/12/31 08:57:02;;;;;;;;;;;11.00;99.90;;;;;;5012377;28;19928;-84
2022/12/31 08:59:34;;;;;;;;;;;11.10;99.90;;;;;;5013231;28;19996;-86
2022/12/31 09:02:12;;;;;;;;;;;11.20;99.90;;;;;;5029339;28;19979;-86
2022/12/31 09:04:41;;;;;;;;;;;11.40;99.90;;;;;;5021461;28;19943;-87
2022/12/31 09:07:08;;;;;;;;;;;11.50;99.90;;;;;;5020160;28;19924;-85
2022/12/31 09:09:52;;;;;;;;;;;11.60;99.90;;;;;;4984427;28;19917;-87
2022/12/31 09:12:38;;;;;;;;;;;11.60;99.90;;;;;;5018835;28;19944;-85
2022/12/31 09:15:07;;;;;;;;;;;11.70;99.90;;;;;;4987336;28;20340;-86
2022/12/31 09:17:49;;;;;;;;;;;11.80;99.90;;;;;;5013099;28;20401;-84
2022/12/31 09:20:35;;;;;;;;;;;11.90;99.90;;;;;;5009420;28;19917;-87
2022/12/31 09:23:02;;;;;;;;;;;11.90;99.90;;;;;;5001235;28;19976;-85
2022/12/31 09:25:28;;;;;;;;;;;12.00;99.90;;;;;;4998592;28;19921;-85
2022/12/31 09:27:59;;;;;;;;;;;12.00;99.90;;;;;;5008586;28;20331;-85
2022/12/31 09:30:26;;;;;;;;;;;12.00;99.90;;;;;;5008212;28;20362;-85
2022/12/31 09:33:31;;;;;;;;;;;12.10;99.90;;;;;;5026689;28;19924;-88
2022/12/31 09:35:59;;;;;;;;;;;12.10;99.90;;;;;;4921612;29;20431;-88
2022/12/31 09:38:25;;;;;;;;;;;12.10;99.90;;;;;;4993328;28;19928;-94
2022/12/31 09:41:10;;;;;;;;;;;12.10;99.90;;;;;;5006102;28;19966;-87
2022/12/31 09:43:38;;;;;;;;;;;12.10;99.90;;;;;;5020370;28;19917;-94
2022/12/31 09:46:23;;;;;;;;;;;12.20;99.90;;;;;;5036247;28;19916;-88
2022/12/31 09:48:53;;;;;;;;;;;12.40;99.90;;;;;;5011309;28;19955;-92
2022/12/31 09:51:29;;;;;;;;;;;12.40;99.90;;;;;;5031870;28;19917;-93
2022/12/31 09:54:08;;;;;;;;;;;12.40;99.90;;;;;;5020916;28;19917;-93
2022/12/31 09:56:35;;;;;;;;;;;12.40;99.90;;;;;;5017680;28;19917;-93
2022/12/31 09:59:04;;;;;;;;;;;12.40;99.90;;;;;;5014646;28;19917;-90
2022/12/31 10:01:35;;;;;;;;;;;12.40;99.90;;;;;;5003483;28;20330;-91
2022/12/31 10:04:03;;;;;;;;;;;12.40;99.90;;;;;;5013746;28;19916;-93
2022/12/31 10:06:38;;;;;;;;;;;12.40;99.90;;;;;;5019832;28;19926;-94
2022/12/31 10:09:07;;;;;;;;;;;12.40;99.90;;;;;;5016918;28;20255;-93
2022/12/31 10:11:44;;;;;;;;;;;12.60;99.90;;;;;;5007940;28;20042;-92
2022/12/31 10:14:33;;;;;;;;;;;12.60;99.90;;;;;;5005554;28;19921;-93
2022/12/31 10:17:04;;;;;;;;;;;12.60;99.90;;;;;;5013194;28;19987;-94
2022/12/31 10:19:33;;;;;;;;;;;12.70;99.90;;;;;;5032248;28;19970;-94
2022/12/31 10:21:59;;;;;;;;;;;12.70;99.90;;;;;;5017136;28;19940;-93
2022/12/31 10:24:44;;;;;;;;;;;12.80;99.90;;;;;;5014075;28;19924;-86
2022/12/31 10:27:20;;;;;;;;;;;12.90;99.90;;;;;;4996905;28;20436;-91
2022/12/31 10:30:05;;;;;;;;;;;13.00;99.90;;;;;;5014461;28;19921;-91
2022/12/31 10:32:34;;;;;;;;;;;13.00;99.90;;;;;;5015860;28;19963;-93
2022/12/31 10:35:11;;;;;;;;;;;12.90;99.90;;;;;;5008592;28;19921;-94
2022/12/31 10:37:49;;;;;;;;;;;13.10;99.90;;;;;;5019540;28;19921;-95
2022/12/31 10:40:24;;;;;;;;;;;13.10;99.90;;;;;;5009344;28;19928;-94
2022/12/31 10:43:02;;;;;;;;;;;13.10;99.90;;;;;;5006448;28;19929;-96
2022/12/31 10:45:46;;;;;;;;;;;13.10;99.90;;;;;;5006111;28;19925;-94
2022/12/31 10:48:32;;;;;;;;;;;13.20;99.90;;;;;;5343796;23;20902;-95
2022/12/31 10:52:53;;;;;;;5.50;1.05;;;13.40;99.90;;;;;;5117514;27;20146;-93
2022/12/31 10:55:31;;;;;;;7.15;1.05;;;13.40;99.90;;;;;;5085716;28;20048;-91
2022/12/31 10:58:21;;;;;;;3.50;1.08;;;13.40;99.90;;;;;;5089889;28;20039;-95
2022/12/31 11:31:46;;;;;;;5.47;1.00;;;13.40;99.90;;;;;;4779687;23;20368;-93
2022/12/31 11:34:37;;;;;;;5.68;1.02;;;13.40;99.90;;;;;;4915578;29;20064;-96
2022/12/31 11:37:31;;;;;;;5.82;1.17;;;13.40;99.90;;;;;;4905485;29;20025;-96
2022/12/31 11:40:53;;;;;;;6.47;1.38;;;12.40;99.90;;;;;;4938878;23;20086;-93
2022/12/31 11:56:17;;;;;;;3.75;1.30;;;13.40;99.90;;;;;;4919798;29;20111;-96
2022/12/31 11:59:00;;;;;;;5.60;1.25;;;13.40;99.90;;;;;;4903765;29;20040;-95
2022/12/31 12:01:44;;;;;;;6.43;1.25;;;13.50;99.90;;;;;;5050648;23;20055;-96
2022/12/31 12:04:10;;;;;;;2.88;0.98;;;13.50;99.90;;;;;;4916960;29;20043;-91
2022/12/31 12:06:36;;;;;;;3.28;0.82;;;13.60;99.90;;;;;;4881518;29;20044;-92
2022/12/31 12:09:15;;;;;;;5.55;1.00;;;13.60;99.90;;;;;;4876285;29;20048;-93
2022/12/31 12:11:42;;;;;;;2.92;0.82;;;13.50;99.90;;;;;;4909869;29;20058;-92
2022/12/31 12:14:31;;;;;;;4.80;1.02;;;13.60;99.90;;;;;;4899133;29;20044;-94
2022/12/31 12:16:58;;;;;;;6.28;1.30;;;13.50;99.90;;;;;;4902370;29;20044;-92
2022/12/31 12:19:28;;;;;;;6.13;1.50;;;13.50;99.90;;;;;;4914225;29;20059;-93
2022/12/31 12:21:54;;;;;;;4.43;1.33;;;13.50;99.90;;;;;;4897990;29;20444;-94
2022/12/31 12:24:29;;;;;;;10.65;1.58;;;13.50;99.90;;;;;;4908706;29;20118;-86
2022/12/31 12:26:56;;;;;;;5.38;1.42;;;13.50;99.90;;;;;;4894381;29;20127;-84
2022/12/31 12:29:42;;;;;;;7.72;1.50;;;13.40;99.90;;;;;;4907601;29;20055;-92
2022/12/31 12:32:20;;;;;;;8.57;1.60;;;13.50;99.90;;;;;;4884714;29;20652;-94
2022/12/31 12:34:46;;;;;;;6.35;1.33;;;12.40;99.90;;;;;;4896580;29;20055;-95
2022/12/31 12:37:31;;;;;;;9.48;1.95;;;13.50;99.90;;;;;;4894499;29;20489;-95
2022/12/31 12:40:16;;;;;;;6.75;1.90;;;13.40;99.90;;;;;;4908752;29;20040;-94
2022/12/31 12:42:51;;;;;;;5.82;1.83;;;13.40;99.90;;;;;;4900306;29;20044;-95
2022/12/31 12:45:23;;;;;;;7.00;1.58;;;13.40;99.90;;;;;;4910751;29;20055;-89
2022/12/31 12:48:00;;;;;;;7.78;1.42;;;13.50;99.90;;;;;;4902272;29;20100;-88
2022/12/31 12:50:37;;;;;;;4.60;1.10;;;13.50;99.90;;;;;;4894482;29;20051;-89
2022/12/31 12:53:29;;;;;;;7.03;1.63;;;13.40;99.90;;;;;;4896035;29;20427;-90
2022/12/31 12:56:27;;;;;;;8.25;1.50;;;13.40;99.90;;;;;;4907034;29;20068;-89
2022/12/31 12:59:01;;;;;;;;;;;13.50;99.90;;;;;;4901493;29;20054;-92
2022/12/31 13:02:14;;;;;;;6.20;1.42;;;13.50;99.90;;;;;;4900095;29;19923;-89
2022/12/31 13:05:10;;;;;;;8.57;1.70;;;13.50;99.90;;;;;;4833854;29;20056;-89
2022/12/31 13:07:53;;;;;;;7.47;1.35;;;13.50;99.90;;;;;;4881334;29;20040;-90
2022/12/31 13:10:52;;;;;;;6.53;1.73;;;13.40;99.90;;;;;;4905635;29;20049;-90
2022/12/31 13:13:36;;;;;;;7.82;1.40;;;13.40;99.90;;;;;;4904096;29;20048;-89
2022/12/31 13:16:11;;;;;;;9.80;1.85;;;13.40;99.90;;;;;;4889289;29;20557;-90
2022/12/31 13:18:52;;;;;;;6.38;1.60;;;13.40;99.90;;;;;;4893930;29;20044;-90
2022/12/31 13:21:52;;;;;;;7.57;1.75;;;13.40;99.90;;;;;;4902158;29;20051;-91
2022/12/31 13:24:31;;;;;;;8.73;2.10;;;13.40;99.90;;;;;;4890574;29;20123;-88
2022/12/31 13:27:26;;;;;;;8.48;1.45;;;13.30;99.90;;;;;;4897638;29;20127;-86
2022/12/31 13:29:56;;;;;;;10.25;1.90;;;13.20;99.90;;;;;;4892481;29;20703;-91
2022/12/31 13:32:39;;;;;;;8.10;1.40;;;12.80;99.90;;;;;;4890393;29;20489;-90
2022/12/31 13:35:24;;;;;;;7.75;1.33;;;13.20;99.90;;;;;;4916735;29;20043;-88
2022/12/31 13:37:56;;;;;;;7.70;1.35;;;13.10;99.90;;;;;;4901703;29;20040;-89
2022/12/31 13:40:47;;;;;;;9.38;2.03;;;13.00;99.90;;;;;;4914814;29;20044;-89
2022/12/31 13:43:24;;;;;;;5.43;1.50;;;13.00;99.90;;;;;;4903051;29;20060;-88
2022/12/31 13:46:02;;;;;;;7.32;1.63;;;12.90;99.90;;;;;;4921700;29;20036;-87
2022/12/31 13:48:36;;;;;;;7.53;1.60;;;12.80;99.90;;;;;;4903382;29;20078;-88
2022/12/31 13:51:42;;;;;;;5.07;1.25;;;12.70;99.90;;;;;;4904196;29;20404;-85
2022/12/31 13:54:32;;;;;;;10.15;1.80;;;12.70;99.90;;;;;;4909701;29;20048;-92
2022/12/31 13:57:04;;;;;;;7.03;1.10;;;12.60;99.90;;;;;;4897410;29;20040;-87
2022/12/31 13:59:41;;;;;;;7.45;1.27;;;12.60;99.90;;;;;;4888676;29;20072;-88
2022/12/31 14:02:24;;;;;;;8.35;1.40;;;12.60;99.90;;;;;;4891856;29;20143;-87
2022/12/31 14:04:57;;;;;;;5.25;1.23;;;12.50;99.90;;;;;;4888781;29;20134;-89
2022/12/31 14:07:28;;;;;;;5.45;1.00;;;12.50;99.90;;;;;;4903614;29;20035;-91
2022/12/31 14:09:54;;;;;;;6.57;1.20;;;12.40;99.90;;;;;;4907332;29;20511;-89
2022/12/31 14:12:41;;;;;;;8.77;1.67;;;12.40;99.90;;;;;;4906584;29;20130;-88
2022/12/31 14:15:23;;;;;;;;;;;12.50;99.90;;;;;;4908355;29;20548;-87
2022/12/31 14:18:15;;;;;;;4.05;0.90;;;12.40;99.90;;;;;;4888698;29;19969;-90
2022/12/31 14:24:02;;;;;;;4.43;1.20;;;12.30;99.90;;;;;;4900428;29;20139;-89
2022/12/31 14:26:33;;;;;;;4.68;1.13;;;12.50;99.90;;;;;;4890432;29;20119;-87
2022/12/31 14:29:10;;;;;;;7.93;1.55;;;12.40;99.90;;;;;;4910106;29;20040;-89
2022/12/31 14:31:48;;;;;;;3.65;0.95;;;12.50;99.90;;;;;;4890090;29;20040;-87
2022/12/31 14:34:39;;;;;;;2.28;0.82;;;12.40;99.90;;;;;;4909647;29;20398;-87
2022/12/31 14:37:17;;;;;;;2.90;0.73;;;12.50;99.90;;;;;;4892011;29;20059;-85
2022/12/31 14:40:10;;;;;;;6.00;1.05;;;12.40;99.90;;;;;;4908503;29;20084;-90
2022/12/31 14:42:54;;;;;;;3.63;0.63;;;12.50;99.90;;;;;;4900134;29;20051;-91
2022/12/31 14:45:43;;;;;;;3.08;0.75;;;12.50;99.90;;;;;;4895795;29;20047;-93
2022/12/31 14:48:28;;;;;;;2.72;0.70;;;12.50;99.90;;;;;;4903665;29;20043;-92
2022/12/31 14:50:54;;;;;;;4.93;1.00;;;12.50;99.90;;;;;;4910186;29;20070;-90
2022/12/31 14:53:25;;;;;;;3.47;1.00;;;12.50;99.90;;;;;;4888191;29;20047;-90
2022/12/31 14:56:00;;;;;;;1.58;0.90;;;12.50;99.90;;;;;;4903090;29;20046;-88
2022/12/31 14:58:35;;;;;;;2.22;0.90;;;12.50;99.90;;;;;;4905379;29;20374;-88
2022/12/31 15:01:17;;;;;;;2.60;0.80;;;12.40;99.90;;;;;;4897211;29;20469;-89
2022/12/31 15:03:44;;;;;;;1.58;0.70;;;12.40;99.90;;;;;;4892697;29;20056;-89
2022/12/31 15:06:16;;;;;;;2.28;0.60;;;12.30;99.90;;;;;;4900311;29;20076;-89
2022/12/31 15:09:03;;;;;;;2.42;1.17;;;12.40;99.90;;;;;;4902823;29;20104;-91
2022/12/31 15:11:38;;;;;;;;;;;12.30;99.90;;;;;;4895848;29;20044;-91
2022/12/31 15:14:19;;;;;;;4.43;0.55;;;12.20;99.90;;;;;;4888649;29;19923;-91
2022/12/31 15:17:03;;;;;;;2.03;0.65;;;12.20;99.90;;;;;;4885745;29;20072;-89
2022/12/31 15:19:45;;;;;;;3.58;0.90;;;12.20;99.90;;;;;;4883207;29;20438;-88
2022/12/31 15:22:45;;;;;;;3.92;0.68;;;12.20;99.90;;;;;;4896414;29;20067;-95
2022/12/31 15:25:19;;;;;;;2.17;0.63;;;12.20;99.90;;;;;;4890924;29;20043;-92